sensor_id;sensor_type;location;lat;lon;timestamp;temperature;humidity
45868;DHT22;31582;45.490;7.860;2023-03-11T00:00:25;12.20;54.70
45868;DHT22;31582;45.490;7.860;2023-03-11T00:02:54;12.10;54.80
45868;DHT22;31582;45.490;7.860;2023-03-11T00:05:25;12.10;54.30
45868;DHT22;31582;45.490;7.860;2023-03-11T00:07:52;12.20;54.10
45868;DHT22;31582;45.490;7.860;2023-03-11T00:10:33;12.20;54.70
45868;DHT22;31582;45.490;7.860;2023-03-11T00:13:02;12.10;55.00
45868;DHT22;31582;45.490;7.860;2023-03-11T00:15:30;12.10;54.80
45868;DHT22;31582;45.490;7.860;2023-03-11T00:17:57;12.20;53.70
45868;DHT22;31582;45.490;7.860;2023-03-11T00:20:33;12.30;54.00
45868;DHT22;31582;45.490;7.860;2023-03-11T00:23:01;12.30;53.70
45868;DHT22;31582;45.490;7.860;2023-03-11T00:25:30;12.20;54.90
45868;DHT22;31582;45.490;7.860;2023-03-11T00:27:57;12.20;53.70
45868;DHT22;31582;45.490;7.860;2023-03-11T00:30:25;12.30;53.20
45868;DHT22;31582;45.490;7.860;2023-03-11T00:32:54;12.30;54.20
45868;DHT22;31582;45.490;7.860;2023-03-11T00:35:27;12.40;53.20
45868;DHT22;31582;45.490;7.860;2023-03-11T00:38:00;12.40;52.90
45868;DHT22;31582;45.490;7.860;2023-03-11T00:40:30;12.50;52.40
45868;DHT22;31582;45.490;7.860;2023-03-11T00:42:57;12.50;53.20
45868;DHT22;31582;45.490;7.860;2023-03-11T00:45:25;12.60;51.80
45868;DHT22;31582;45.490;7.860;2023-03-11T00:47:53;12.60;52.30
45868;DHT22;31582;45.490;7.860;2023-03-11T00:50:26;12.60;53.40
45868;DHT22;31582;45.490;7.860;2023-03-11T00:52:54;12.50;54.10
45868;DHT22;31582;45.490;7.860;2023-03-11T00:55:26;12.40;54.30
45868;DHT22;31582;45.490;7.860;2023-03-11T00:57:55;12.40;54.20
45868;DHT22;31582;45.490;7.860;2023-03-11T01:00:23;12.30;54.30
45868;DHT22;31582;45.490;7.860;2023-03-11T01:02:51;12.30;54.90
45868;DHT22;31582;45.490;7.860;2023-03-11T01:05:21;12.30;55.00
45868;DHT22;31582;45.490;7.860;2023-03-11T01:07:48;12.30;55.10
45868;DHT22;31582;45.490;7.860;2023-03-11T01:10:16;12.20;55.70
45868;DHT22;31582;45.490;7.860;2023-03-11T01:12:43;12.20;55.90
45868;DHT22;31582;45.490;7.860;2023-03-11T01:15:31;12.10;56.40
45868;DHT22;31582;45.490;7.860;2023-03-11T01:17:59;12.10;56.30
45868;DHT22;31582;45.490;7.860;2023-03-11T01:20:26;12.10;56.80
45868;DHT22;31582;45.490;7.860;2023-03-11T01:22:53;12.00;56.80
45868;DHT22;31582;45.490;7.860;2023-03-11T01:25:22;12.00;57.20
45868;DHT22;31582;45.490;7.860;2023-03-11T01:27:49;11.90;57.70
45868;DHT22;31582;45.490;7.860;2023-03-11T01:30:20;11.80;58.10
45868;DHT22;31582;45.490;7.860;2023-03-11T01:32:48;11.90;58.10
45868;DHT22;31582;45.490;7.860;2023-03-11T01:35:17;12.00;58.10
45868;DHT22;31582;45.490;7.860;2023-03-11T01:37:44;11.90;58.30
45868;DHT22;31582;45.490;7.860;2023-03-11T01:40:31;11.90;58.40
45868;DHT22;31582;45.490;7.860;2023-03-11T01:42:59;11.90;58.60
45868;DHT22;31582;45.490;7.860;2023-03-11T01:47:59;11.80;58.80
45868;DHT22;31582;45.490;7.860;2023-03-11T01:50:32;11.70;59.50
45868;DHT22;31582;45.490;7.860;2023-03-11T01:53:00;11.70;59.90
45868;DHT22;31582;45.490;7.860;2023-03-11T01:55:27;11.60;60.20
45868;DHT22;31582;45.490;7.860;2023-03-11T01:57:55;11.60;60.00
45868;DHT22;31582;45.490;7.860;2023-03-11T02:00:22;11.60;60.40
45868;DHT22;31582;45.490;7.860;2023-03-11T02:02:54;11.60;60.10
